Kansai — JD3272 — position and weather

sailwx.info

Track history (hours):
 
Tides and Currents Weather Stations Pressure Air Temp Water Temp Dewpoint Dewpoint Depression Visibility Wind Speed Wind Dir Waves Ship Positions

Kansai

Last reported at 2015-Mar-04 17:12 UTC. Time now 2015-Mar-05 12:02 UTC.
Position N 35°08' E 139°43'.

Length 73 m; draft 4.2 m.

Type: Cargo ship. MMSI: 431003134.

Date/timePositionNaut miles runAvg speedWind from/ knotsBaromVisibWave heightAir tempDewpointWater temp
2015-Mar-04 17:12N 35°08' E 139°43'710.4
2015-Mar-04 16:33N 35°14' E 139°46'1010.1
2015-Mar-04 15:33N 35°22' E 139°40'0 0.1
2015-Mar-04 14:33N 35°22' E 139°40'0 0.0
2015-Mar-04 13:33N 35°22' E 139°40'0 0.0
2015-Mar-04 12:33N 35°22' E 139°40'0 0.0
2015-Mar-04 11:33N 35°22' E 139°40'0 0.0
2015-Mar-04 10:33N 35°22' E 139°40'0 0.0
2015-Mar-04 09:33N 35°22' E 139°40'0 0.0
2015-Mar-04 08:33N 35°22' E 139°40'0 0.1
2015-Mar-04 07:33N 35°22' E 139°40'0 0.0
2015-Mar-04 06:33N 35°22' E 139°40'0 0.0
2015-Mar-04 05:33N 35°22' E 139°40'0 0.0
2015-Mar-04 04:33N 35°22' E 139°40'0 0.1
2015-Mar-04 03:33N 35°22' E 139°40'0 0.0
2015-Mar-04 02:33N 35°22' E 139°40'0 0.0
2015-Mar-04 01:33N 35°22' E 139°40'0 0.1
2015-Mar-04 00:33N 35°22' E 139°40'0 0.0
2015-Mar-03 23:33N 35°22' E 139°40'0 0.0
2015-Mar-03 22:33N 35°22' E 139°40'0 0.0
2015-Mar-03 21:33N 35°22' E 139°40'0 0.0
2015-Mar-03 20:33N 35°22' E 139°40'0 0.0
2015-Mar-03 19:33N 35°22' E 139°40'0 0.0
2015-Mar-03 18:33N 35°22' E 139°40'0 0.0
2015-Mar-03 17:33N 35°22' E 139°40'0 0.0
2015-Mar-03 16:33N 35°22' E 139°40'0 0.0
2015-Mar-03 15:33N 35°22' E 139°40'0 0.0
2015-Mar-03 14:33N 35°22' E 139°40'0 0.0
2015-Mar-03 13:33N 35°22' E 139°40'0 0.0
2015-Mar-03 12:33N 35°22' E 139°40'0 0.0
2015-Mar-03 11:33N 35°22' E 139°40'0 0.0
2015-Mar-03 10:33N 35°22' E 139°40'0 0.0
2015-Mar-03 09:33N 35°22' E 139°40'6 5.7
2015-Mar-03 08:33N 35°26' E 139°45'14 1.2
2015-Mar-02 20:22N 35°36' E 139°57'4 4.5
2015-Mar-02 19:33N 35°33' E 139°55'5 4.9
2015-Mar-02 18:33N 35°29' E 139°52'5 4.8
2015-Mar-02 17:33N 35°25' E 139°48'10 9.2
2015-Mar-02 16:28N 35°15' E 139°47'247 4.9
2015-Feb-28 13:33N 34°04' E 134°59'1512.6
2015-Feb-28 12:23N 34°19' E 134°59'1012.1
2015-Feb-28 11:32N 34°29' E 135°02'10 8.1
2015-Feb-28 10:21N 34°37' E 134°55'4 0.2
2015-Feb-27 15:20N 34°39' E 134°52'810.4
2015-Feb-27 14:31N 34°37' E 135°02'1010.3
2015-Feb-27 13:33N 34°36' E 135°14'1111.4
2015-Feb-27 12:33N 34°39' E 135°27'1 0.1
2015-Feb-27 07:22N 34°38' E 135°28'0 0.0
2015-Feb-27 06:33N 34°38' E 135°28'0 0.0
2015-Feb-27 05:33N 34°38' E 135°28'0 0.3
2015-Feb-27 04:32N 34°39' E 135°28'1 1.0
2015-Feb-27 03:33N 34°38' E 135°27'0 0.4
2015-Feb-27 02:29N 34°38' E 135°27'1 0.1
2015-Feb-26 13:19N 34°38' E 135°28'0 0.0
2015-Feb-25 23:10N 34°39' E 135°28'4 6.1
2015-Feb-25 22:34N 34°38' E 135°23'2 1.9
2015-Feb-25 21:31N 34°37' E 135°22'0 0.0
2015-Feb-25 20:34N 34°37' E 135°22'2 1.6
2015-Feb-25 19:33N 34°36' E 135°20'1110.7
2015-Feb-25 18:31N 34°28' E 135°10'1311.3
2015-Feb-25 17:22N 34°18' E 134°60'1011.3
2015-Feb-25 16:32N 34°09' E 135°00'230 8.4
2015-Feb-24 13:17N 34°59' E 139°32'2010.1
2015-Feb-24 11:21N 35°15' E 139°46'810.5
2015-Feb-24 10:33N 35°22' E 139°42'1110.5
2015-Feb-24 09:33N 35°29' E 139°51'10 0.3
2015-Feb-23 03:16N 35°37' E 139°58'  
Track history (hours):
 
Tides and Currents Weather Stations Pressure Air Temp Water Temp Dewpoint Dewpoint Depression Visibility Wind Speed Wind Dir Waves Ship Positions

Kansai

Last reported at 2015-Mar-04 17:12 UTC. Time now 2015-Mar-05 12:02 UTC.
Position N 35°08' E 139°43'.

Length 73 m; draft 4.2 m.

Type: Cargo ship. MMSI: 431003134.

Date/timePositionNaut miles runAvg speedWind from/ knotsBaromVisibWave heightAir tempDewpointWater temp
2015-Mar-04 17:12N 35°08' E 139°43'710.4
2015-Mar-04 16:33N 35°14' E 139°46'1010.1
2015-Mar-04 15:33N 35°22' E 139°40'0 0.1
2015-Mar-04 14:33N 35°22' E 139°40'0 0.0
2015-Mar-04 13:33N 35°22' E 139°40'0 0.0
2015-Mar-04 12:33N 35°22' E 139°40'0 0.0
2015-Mar-04 11:33N 35°22' E 139°40'0 0.0
2015-Mar-04 10:33N 35°22' E 139°40'0 0.0
2015-Mar-04 09:33N 35°22' E 139°40'0 0.0
2015-Mar-04 08:33N 35°22' E 139°40'0 0.1
2015-Mar-04 07:33N 35°22' E 139°40'0 0.0
2015-Mar-04 06:33N 35°22' E 139°40'0 0.0
2015-Mar-04 05:33N 35°22' E 139°40'0 0.0
2015-Mar-04 04:33N 35°22' E 139°40'0 0.1
2015-Mar-04 03:33N 35°22' E 139°40'0 0.0
2015-Mar-04 02:33N 35°22' E 139°40'0 0.0
2015-Mar-04 01:33N 35°22' E 139°40'0 0.1
2015-Mar-04 00:33N 35°22' E 139°40'0 0.0
2015-Mar-03 23:33N 35°22' E 139°40'0 0.0
2015-Mar-03 22:33N 35°22' E 139°40'0 0.0
2015-Mar-03 21:33N 35°22' E 139°40'0 0.0
2015-Mar-03 20:33N 35°22' E 139°40'0 0.0
2015-Mar-03 19:33N 35°22' E 139°40'0 0.0
2015-Mar-03 18:33N 35°22' E 139°40'0 0.0
2015-Mar-03 17:33N 35°22' E 139°40'0 0.0
2015-Mar-03 16:33N 35°22' E 139°40'0 0.0
2015-Mar-03 15:33N 35°22' E 139°40'0 0.0
2015-Mar-03 14:33N 35°22' E 139°40'0 0.0
2015-Mar-03 13:33N 35°22' E 139°40'0 0.0
2015-Mar-03 12:33N 35°22' E 139°40'0 0.0
2015-Mar-03 11:33N 35°22' E 139°40'0 0.0
2015-Mar-03 10:33N 35°22' E 139°40'0 0.0
2015-Mar-03 09:33N 35°22' E 139°40'6 5.7
2015-Mar-03 08:33N 35°26' E 139°45'14 1.2
2015-Mar-02 20:22N 35°36' E 139°57'4 4.5
2015-Mar-02 19:33N 35°33' E 139°55'5 4.9
2015-Mar-02 18:33N 35°29' E 139°52'5 4.8
2015-Mar-02 17:33N 35°25' E 139°48'10 9.2
2015-Mar-02 16:28N 35°15' E 139°47'247 4.9
2015-Feb-28 13:33N 34°04' E 134°59'1512.6
2015-Feb-28 12:23N 34°19' E 134°59'1012.1
2015-Feb-28 11:32N 34°29' E 135°02'10 8.1
2015-Feb-28 10:21N 34°37' E 134°55'4 0.2
2015-Feb-27 15:20N 34°39' E 134°52'810.4
2015-Feb-27 14:31N 34°37' E 135°02'1010.3
2015-Feb-27 13:33N 34°36' E 135°14'1111.4
2015-Feb-27 12:33N 34°39' E 135°27'1 0.1
2015-Feb-27 07:22N 34°38' E 135°28'0 0.0
2015-Feb-27 06:33N 34°38' E 135°28'0 0.0
2015-Feb-27 05:33N 34°38' E 135°28'0 0.3
2015-Feb-27 04:32N 34°39' E 135°28'1 1.0
2015-Feb-27 03:33N 34°38' E 135°27'0 0.4
2015-Feb-27 02:29N 34°38' E 135°27'1 0.1
2015-Feb-26 13:19N 34°38' E 135°28'0 0.0
2015-Feb-25 23:10N 34°39' E 135°28'4 6.1
2015-Feb-25 22:34N 34°38' E 135°23'2 1.9
2015-Feb-25 21:31N 34°37' E 135°22'0 0.0
2015-Feb-25 20:34N 34°37' E 135°22'2 1.6
2015-Feb-25 19:33N 34°36' E 135°20'1110.7
2015-Feb-25 18:31N 34°28' E 135°10'1311.3
2015-Feb-25 17:22N 34°18' E 134°60'1011.3
2015-Feb-25 16:32N 34°09' E 135°00'230 8.4
2015-Feb-24 13:17N 34°59' E 139°32'2010.1
2015-Feb-24 11:21N 35°15' E 139°46'810.5
2015-Feb-24 10:33N 35°22' E 139°42'1110.5
2015-Feb-24 09:33N 35°29' E 139°51'10 0.3
2015-Feb-23 03:16N 35°37' E 139°58'  

Dump ship's entire track history